FLI weather

Holt Airport
Flateyri, Westfjords, Iceland

Public forecast

Using degrees Celsius for public forecast. Weather courtesy of forecast.io.

Closest aviation weather report (METAR) to Holt Airport

Report is more than 6 hours old.

Closest report is Ísafjörður Airport, 7.9 nm (14.7 km) ENE. Retrieved 2020/05/29 16:47 UTC (7 hours ago):

BIIS 291647Z 22010G20KT 9999 FEW020 BKN025 OVC030 13/07 Q1002

Closest aviation forecast (TAF) to Holt Airport

Closest forecast is Reykjavik Airport, 119.3 nm (221.0 km) SSE. Retrieved 2020/05/29 21:56 UTC (2 hours ago):

TAF BIRK 291951Z 2921/3021 14018KT 9999 -RADZ SCT016 BKN022 OVC030 TX11/3015Z TN07/3006Z TEMPO 2921/3003 4000 RADZ BR BKN010 OVC018 BECMG 3003/3005 20014KT -SHRA FEW020 BKN032 TEMPO 3004/3021 SHRA BKN015